Karla A — TCCR8 — position and weather

sailwx.info

Track history (hours):
 
Tides and Currents Weather Stations Pressure Air Temp Water Temp Dewpoint Dewpoint Depression Visibility Wind Speed Wind Dir Waves Ship Positions

Karla A

Last reported at 2014-Aug-31 20:07 UTC. Time now 2014-Sep-01 18:41 UTC.
Position N 31°22' E 032°19'.

Length 155 m; draft 7 m.

Type: Ship (hazmat cat A). MMSI: 271000744.

Date/timePositionNaut miles runAvg speedWind from/ knotsBaromVisibWave heightAir tempDewpointWater temp
2014-Aug-31 20:07N 31°22' E 032°19'0 0.0
2014-Aug-31 15:23N 31°22' E 032°19'0 0.0
2014-Aug-31 14:26N 31°22' E 032°19'0 0.0
2014-Aug-31 11:22N 31°22' E 032°19'0 0.0
2014-Aug-31 09:12N 31°22' E 032°19'0 0.0
2014-Aug-31 03:22N 31°22' E 032°19'0 0.0
2014-Aug-31 02:33N 31°22' E 032°19'0 0.0
2014-Aug-31 00:11N 31°22' E 032°19'0 0.0
2014-Aug-30 23:32N 31°22' E 032°19'0 0.0
2014-Aug-30 22:25N 31°22' E 032°19'0 0.0
2014-Aug-30 21:19N 31°22' E 032°19'0 0.0
2014-Aug-30 20:22N 31°22' E 032°19'0 0.0
2014-Aug-30 19:15N 31°22' E 032°19'0 0.0
2014-Aug-30 18:27N 31°22' E 032°19'0 0.0
2014-Aug-30 17:32N 31°22' E 032°19'0 0.0
2014-Aug-30 16:32N 31°22' E 032°19'0 0.0
2014-Aug-30 15:31N 31°22' E 032°19'0 0.0
2014-Aug-30 14:31N 31°22' E 032°19'0 0.0
2014-Aug-30 13:32N 31°22' E 032°19'0 0.0
2014-Aug-30 12:23N 31°22' E 032°19'0 0.0
2014-Aug-30 03:32N 31°22' E 032°19'1 0.6
2014-Aug-30 02:33N 31°21' E 032°19'7 5.9
2014-Aug-30 01:23N 31°14' E 032°18'0 0.0
2014-Aug-29 20:27N 31°14' E 032°18'0 0.0
2014-Aug-29 17:22N 31°14' E 032°18'0 0.0
2014-Aug-29 16:31N 31°14' E 032°18'0 0.0
2014-Aug-29 12:12N 31°14' E 032°18'7 0.6
2014-Aug-29 01:09N 31°21' E 032°18'0 0.0
2014-Aug-29 00:24N 31°21' E 032°18'102 4.1
2014-Aug-27 23:32N 32°37' E 033°39'1313.5
2014-Aug-27 22:33N 32°46' E 033°51'4113.3
2014-Aug-27 19:28N 33°15' E 034°25'1213.4
2014-Aug-27 18:33N 33°24' E 034°36'1313.3
2014-Aug-27 17:33N 33°33' E 034°47'1812.8
2014-Aug-27 16:09N 33°46' E 035°02'14 1.0
2014-Aug-27 02:08N 33°54' E 035°16'5912.9
2014-Aug-26 21:33N 34°52' E 035°02'1413.6
2014-Aug-26 20:33N 35°06' E 034°59'1413.5
2014-Aug-26 19:30N 35°20' E 034°57'2913.4
2014-Aug-26 17:23N 35°48' E 034°51'1112.9
2014-Aug-26 16:32N 35°59' E 034°49'47 1.9
2014-Aug-25 15:29N 36°45' E 034°39'0 0.0
2014-Aug-25 12:31N 36°45' E 034°39'0 0.0
2014-Aug-25 11:33N 36°45' E 034°39'0 0.0
2014-Aug-25 10:33N 36°45' E 034°39'0 0.0
2014-Aug-25 09:32N 36°45' E 034°39'82 6.2
2014-Aug-24 20:13N 35°23' E 034°32'913.0
2014-Aug-24 19:33N 35°15' E 034°28'1313.2
2014-Aug-24 18:33N 35°03' E 034°22'1313.3
2014-Aug-24 17:33N 34°51' E 034°16'1313.0
2014-Aug-24 16:33N 34°39' E 034°10'1312.7
2014-Aug-24 15:33N 34°27' E 034°04'1312.6
2014-Aug-24 14:33N 34°15' E 033°58'1312.5
2014-Aug-24 13:33N 34°04' E 033°52'1212.5
2014-Aug-24 12:33N 33°53' E 033°46'1312.5
2014-Aug-24 11:33N 33°41' E 033°41'1212.6
2014-Aug-24 10:33N 33°29' E 033°35'1312.7
2014-Aug-24 09:33N 33°17' E 033°30'1313.1
2014-Aug-24 08:33N 33°05' E 033°24'1413.6
2014-Aug-24 07:33N 32°53' E 033°17'1313.4
2014-Aug-24 06:33N 32°41' E 033°11'1313.3
2014-Aug-24 05:32N 32°28' E 033°05'1313.1
2014-Aug-24 04:33N 32°16' E 032°59'1313.0
2014-Aug-24 03:33N 32°04' E 032°53'1313.0
2014-Aug-24 02:33N 31°52' E 032°48'2512.6
2014-Aug-24 00:33N 31°36' E 032°25'23 5.6
2014-Aug-23 20:20N 31°13' E 032°21'0 0.0
2014-Aug-23 19:29N 31°13' E 032°21'0 0.0
2014-Aug-23 03:18N 31°13' E 032°21'0 0.0
2014-Aug-23 02:31N 31°13' E 032°21'1 0.6
2014-Aug-23 01:24N 31°13' E 032°21'10 5.1
2014-Aug-22 23:31N 31°22' E 032°17'0 0.1
2014-Aug-22 22:22N 31°22' E 032°17'0 0.0
2014-Aug-22 21:06N 31°22' E 032°17'0 0.0
2014-Aug-22 19:29N 31°22' E 032°17'0 0.0
2014-Aug-22 18:29N 31°22' E 032°17'0 0.0
2014-Aug-22 15:25N 31°22' E 032°17'0 0.0
2014-Aug-22 13:27N 31°22' E 032°17'5 5.5
2014-Aug-22 12:31N 31°19' E 032°21'5 5.1
2014-Aug-22 11:31N 31°14' E 032°18'0 0.0
2014-Aug-22 10:18N 31°14' E 032°18'0 0.0
2014-Aug-22 09:12N 31°14' E 032°18'4 0.6
2014-Aug-22 02:27N 31°18' E 032°21'4 4.5
2014-Aug-22 01:30N 31°22' E 032°19'  
Track history (hours):
 
Tides and Currents Weather Stations Pressure Air Temp Water Temp Dewpoint Dewpoint Depression Visibility Wind Speed Wind Dir Waves Ship Positions

Karla A

Last reported at 2014-Aug-31 20:07 UTC. Time now 2014-Sep-01 18:41 UTC.
Position N 31°22' E 032°19'.

Length 155 m; draft 7 m.

Type: Ship (hazmat cat A). MMSI: 271000744.

Date/timePositionNaut miles runAvg speedWind from/ knotsBaromVisibWave heightAir tempDewpointWater temp
2014-Aug-31 20:07N 31°22' E 032°19'0 0.0
2014-Aug-31 15:23N 31°22' E 032°19'0 0.0
2014-Aug-31 14:26N 31°22' E 032°19'0 0.0
2014-Aug-31 11:22N 31°22' E 032°19'0 0.0
2014-Aug-31 09:12N 31°22' E 032°19'0 0.0
2014-Aug-31 03:22N 31°22' E 032°19'0 0.0
2014-Aug-31 02:33N 31°22' E 032°19'0 0.0
2014-Aug-31 00:11N 31°22' E 032°19'0 0.0
2014-Aug-30 23:32N 31°22' E 032°19'0 0.0
2014-Aug-30 22:25N 31°22' E 032°19'0 0.0
2014-Aug-30 21:19N 31°22' E 032°19'0 0.0
2014-Aug-30 20:22N 31°22' E 032°19'0 0.0
2014-Aug-30 19:15N 31°22' E 032°19'0 0.0
2014-Aug-30 18:27N 31°22' E 032°19'0 0.0
2014-Aug-30 17:32N 31°22' E 032°19'0 0.0
2014-Aug-30 16:32N 31°22' E 032°19'0 0.0
2014-Aug-30 15:31N 31°22' E 032°19'0 0.0
2014-Aug-30 14:31N 31°22' E 032°19'0 0.0
2014-Aug-30 13:32N 31°22' E 032°19'0 0.0
2014-Aug-30 12:23N 31°22' E 032°19'0 0.0
2014-Aug-30 03:32N 31°22' E 032°19'1 0.6
2014-Aug-30 02:33N 31°21' E 032°19'7 5.9
2014-Aug-30 01:23N 31°14' E 032°18'0 0.0
2014-Aug-29 20:27N 31°14' E 032°18'0 0.0
2014-Aug-29 17:22N 31°14' E 032°18'0 0.0
2014-Aug-29 16:31N 31°14' E 032°18'0 0.0
2014-Aug-29 12:12N 31°14' E 032°18'7 0.6
2014-Aug-29 01:09N 31°21' E 032°18'0 0.0
2014-Aug-29 00:24N 31°21' E 032°18'102 4.1
2014-Aug-27 23:32N 32°37' E 033°39'1313.5
2014-Aug-27 22:33N 32°46' E 033°51'4113.3
2014-Aug-27 19:28N 33°15' E 034°25'1213.4
2014-Aug-27 18:33N 33°24' E 034°36'1313.3
2014-Aug-27 17:33N 33°33' E 034°47'1812.8
2014-Aug-27 16:09N 33°46' E 035°02'14 1.0
2014-Aug-27 02:08N 33°54' E 035°16'5912.9
2014-Aug-26 21:33N 34°52' E 035°02'1413.6
2014-Aug-26 20:33N 35°06' E 034°59'1413.5
2014-Aug-26 19:30N 35°20' E 034°57'2913.4
2014-Aug-26 17:23N 35°48' E 034°51'1112.9
2014-Aug-26 16:32N 35°59' E 034°49'47 1.9
2014-Aug-25 15:29N 36°45' E 034°39'0 0.0
2014-Aug-25 12:31N 36°45' E 034°39'0 0.0
2014-Aug-25 11:33N 36°45' E 034°39'0 0.0
2014-Aug-25 10:33N 36°45' E 034°39'0 0.0
2014-Aug-25 09:32N 36°45' E 034°39'82 6.2
2014-Aug-24 20:13N 35°23' E 034°32'913.0
2014-Aug-24 19:33N 35°15' E 034°28'1313.2
2014-Aug-24 18:33N 35°03' E 034°22'1313.3
2014-Aug-24 17:33N 34°51' E 034°16'1313.0
2014-Aug-24 16:33N 34°39' E 034°10'1312.7
2014-Aug-24 15:33N 34°27' E 034°04'1312.6
2014-Aug-24 14:33N 34°15' E 033°58'1312.5
2014-Aug-24 13:33N 34°04' E 033°52'1212.5
2014-Aug-24 12:33N 33°53' E 033°46'1312.5
2014-Aug-24 11:33N 33°41' E 033°41'1212.6
2014-Aug-24 10:33N 33°29' E 033°35'1312.7
2014-Aug-24 09:33N 33°17' E 033°30'1313.1
2014-Aug-24 08:33N 33°05' E 033°24'1413.6
2014-Aug-24 07:33N 32°53' E 033°17'1313.4
2014-Aug-24 06:33N 32°41' E 033°11'1313.3
2014-Aug-24 05:32N 32°28' E 033°05'1313.1
2014-Aug-24 04:33N 32°16' E 032°59'1313.0
2014-Aug-24 03:33N 32°04' E 032°53'1313.0
2014-Aug-24 02:33N 31°52' E 032°48'2512.6
2014-Aug-24 00:33N 31°36' E 032°25'23 5.6
2014-Aug-23 20:20N 31°13' E 032°21'0 0.0
2014-Aug-23 19:29N 31°13' E 032°21'0 0.0
2014-Aug-23 03:18N 31°13' E 032°21'0 0.0
2014-Aug-23 02:31N 31°13' E 032°21'1 0.6
2014-Aug-23 01:24N 31°13' E 032°21'10 5.1
2014-Aug-22 23:31N 31°22' E 032°17'0 0.1
2014-Aug-22 22:22N 31°22' E 032°17'0 0.0
2014-Aug-22 21:06N 31°22' E 032°17'0 0.0
2014-Aug-22 19:29N 31°22' E 032°17'0 0.0
2014-Aug-22 18:29N 31°22' E 032°17'0 0.0
2014-Aug-22 15:25N 31°22' E 032°17'0 0.0
2014-Aug-22 13:27N 31°22' E 032°17'5 5.5
2014-Aug-22 12:31N 31°19' E 032°21'5 5.1
2014-Aug-22 11:31N 31°14' E 032°18'0 0.0
2014-Aug-22 10:18N 31°14' E 032°18'0 0.0
2014-Aug-22 09:12N 31°14' E 032°18'4 0.6
2014-Aug-22 02:27N 31°18' E 032°21'4 4.5
2014-Aug-22 01:30N 31°22' E 032°19'  

Dump ship's entire track history